Time;durP1;ratioP1;P1;durP2;ratioP2;P2;SDS_P1;SDS_P2;PMS_P1;PMS_P2;Temp;Humidity;BMP_temperature;BMP_pressure;BME280_temperature;BME280_humidity;BME280_pressure;Samples;Min_cycle;Max_cycle;Signal;HPM_P1;HPM_P2
2022/06/10 00:00:43;;;;;;;5.87;2.10;;;;;;;17.67;66.26;101137.50;5085222;28;20230;-71
2022/06/10 00:03:12;;;;;;;4.87;2.20;;;;;;;17.71;66.65;101132.59;5086790;28;20690;-71
2022/06/10 00:05:42;;;;;;;2.70;2.00;;;;;;;17.75;66.13;101133.91;5083392;28;20237;-71
2022/06/10 00:08:15;;;;;;;5.17;1.90;;;;;;;17.53;67.33;101135.53;5084947;28;21059;-71
2022/06/10 00:10:45;;;;;;;4.27;1.90;;;;;;;17.41;68.05;101131.59;5085668;28;20201;-71
2022/06/10 00:13:14;;;;;;;4.73;2.07;;;;;;;17.26;68.67;101128.81;5084561;28;20297;-71
2022/06/10 00:15:42;;;;;;;6.33;1.93;;;;;;;17.18;68.74;101139.56;5085570;28;20207;-71
2022/06/10 00:18:10;;;;;;;4.53;1.87;;;;;;;17.15;69.10;101137.25;5092974;28;20211;-71
2022/06/10 00:20:40;;;;;;;6.23;2.30;;;;;;;17.22;69.06;101137.41;5084577;28;20559;-71
2022/06/10 00:23:09;;;;;;;4.07;2.20;;;;;;;17.26;68.47;101144.91;5084375;28;20232;-71
2022/06/10 00:25:37;;;;;;;4.20;2.20;;;;;;;17.21;68.20;101146.44;5086033;28;20231;-71
2022/06/10 00:28:06;;;;;;;5.93;2.27;;;;;;;17.27;68.38;101151.94;5085055;28;20242;-71
2022/06/10 00:30:36;;;;;;;6.03;2.77;;;;;;;17.33;68.31;101150.38;5085013;28;20268;-71
2022/06/10 00:33:05;;;;;;;6.80;2.20;;;;;;;17.30;68.53;101150.75;5085922;28;20728;-71
2022/06/10 00:35:34;;;;;;;6.43;2.50;;;;;;;17.31;68.09;101152.44;5087021;28;20207;-71
2022/06/10 00:38:02;;;;;;;4.80;2.17;;;;;;;17.32;68.27;101153.28;5086324;28;20211;-71
2022/06/10 00:40:33;;;;;;;9.17;2.97;;;;;;;17.34;68.00;101152.06;5086265;28;20230;-71
2022/06/10 00:43:01;;;;;;;5.17;2.40;;;;;;;17.39;68.48;101155.06;5084583;28;20818;-71
2022/06/10 00:45:54;;;;;;;7.97;2.90;;;;;;;17.43;67.50;101150.16;5084992;28;20222;-72
2022/06/10 00:48:28;;;;;;;5.17;2.80;;;;;;;17.39;67.66;101160.44;5084460;28;20337;-71
2022/06/10 00:50:58;;;;;;;7.77;3.00;;;;;;;17.41;67.91;101155.72;5085443;28;20238;-72
2022/06/10 00:53:30;;;;;;;6.00;2.80;;;;;;;17.33;68.23;101149.59;5082818;28;20837;-72
2022/06/10 00:55:59;;;;;;;6.37;2.60;;;;;;;17.33;67.98;101154.94;5083809;28;20199;-72
2022/06/10 00:58:40;;;;;;;5.63;2.40;;;;;;;17.33;68.26;101158.44;5086267;28;20239;-72
2022/06/10 01:01:11;;;;;;;5.30;2.50;;;;;;;17.30;68.30;101153.44;5085614;28;20290;-72
2022/06/10 01:03:41;;;;;;;6.00;2.43;;;;;;;17.12;69.55;101152.84;5082466;28;20214;-72
2022/06/10 01:06:09;;;;;;;6.03;2.30;;;;;;;17.05;69.87;101149.19;5086526;28;20230;-72
2022/06/10 01:08:38;;;;;;;5.87;2.33;;;;;;;17.08;69.63;101156.88;5083053;28;20205;-72
2022/06/10 01:11:27;;;;;;;6.47;2.50;;;;;;;17.15;69.26;101153.31;5086390;28;20263;-72
2022/06/10 01:14:06;;;;;;;5.93;2.60;;;;;;;17.09;69.28;101147.81;5082098;28;20207;-71
2022/06/10 01:16:47;;;;;;;8.30;2.67;;;;;;;17.08;69.03;101141.63;5081833;28;20210;-71
2022/06/10 01:19:38;;;;;;;13.07;2.90;;;;;;;17.12;69.39;101150.16;5084951;28;20510;-71
2022/06/10 01:22:33;;;;;;;7.57;2.93;;;;;;;17.11;69.50;101149.34;5085314;28;20218;-71
2022/06/10 01:25:32;;;;;;;7.90;2.87;;;;;;;17.12;69.25;101155.53;5083790;28;20208;-72
2022/06/10 01:28:09;;;;;;;7.70;2.70;;;;;;;17.01;69.86;101151.38;5084410;28;20275;-71
2022/06/10 01:30:52;;;;;;;6.43;3.03;;;;;;;17.05;70.66;101154.56;5086376;28;20251;-71
2022/06/10 01:33:30;;;;;;;7.00;3.13;;;;;;;17.03;69.75;101152.03;5084405;28;20211;-71
2022/06/10 01:36:04;;;;;;;7.47;2.80;;;;;;;17.05;69.76;101159.91;5084165;28;20273;-71
2022/06/10 01:38:39;;;;;;;10.73;3.17;;;;;;;17.05;69.80;101158.06;5083583;28;20678;-71
2022/06/10 01:41:15;;;;;;;7.20;2.70;;;;;;;17.01;70.06;101155.91;5084275;28;20221;-72
2022/06/10 01:43:57;;;;;;;7.50;3.47;;;;;;;17.00;70.80;101162.25;5081756;28;20206;-72
2022/06/10 01:46:30;;;;;;;6.50;3.00;;;;;;;17.00;70.64;101162.25;5084565;28;20226;-72
2022/06/10 01:49:07;;;;;;;11.77;3.30;;;;;;;16.98;71.02;101165.09;5084396;28;20246;-72
2022/06/10 01:51:46;;;;;;;6.77;3.10;;;;;;;17.00;71.24;101170.31;5065547;28;20549;-71
2022/06/10 01:54:20;;;;;;;5.07;2.27;;;;;;;17.04;71.22;101166.28;5063841;28;20211;-71
2022/06/10 01:56:53;;;;;;;6.23;3.07;;;;;;;17.06;70.93;101175.00;5061973;28;20644;-71
2022/06/10 01:59:25;;;;;;;5.60;2.73;;;;;;;17.03;71.11;101167.28;5058129;28;20208;-71
2022/06/10 02:01:59;;;;;;;6.70;2.40;;;;;;;17.04;71.08;101166.28;5057034;28;20222;-75
2022/06/10 02:04:31;;;;;;;8.93;2.60;;;;;;;17.04;71.38;101171.63;5064123;28;20647;-72
2022/06/10 02:07:03;;;;;;;6.20;2.90;;;;;;;17.06;71.15;101162.44;5062786;28;20298;-72
2022/06/10 02:09:37;;;;;;;8.10;2.80;;;;;;;17.06;70.85;101167.78;5066235;28;20250;-72
2022/06/10 02:12:11;;;;;;;5.50;2.80;;;;;;;17.04;71.27;101166.28;5063745;28;20237;-72
2022/06/10 02:14:46;;;;;;;4.03;2.50;;;;;;;17.01;71.08;101164.78;5065094;28;20552;-72
2022/06/10 02:17:16;;;;;;;6.83;3.07;;;;;;;16.98;70.74;101162.44;5061757;28;20302;-72
2022/06/10 02:19:49;;;;;;;6.27;2.80;;;;;;;16.96;70.43;101175.19;5063649;28;20202;-72
2022/06/10 02:22:26;;;;;;;5.80;2.63;;;;;;;16.86;70.74;101174.53;5066372;28;20205;-72
2022/06/10 02:25:00;;;;;;;7.37;2.80;;;;;;;16.81;70.91;101172.38;5064712;28;20235;-72
2022/06/10 02:27:31;;;;;;;4.17;2.70;;;;;;;16.77;71.06;101171.06;5062094;28;20311;-72
2022/06/10 02:30:04;;;;;;;6.07;2.90;;;;;;;16.72;71.65;101176.06;5063485;28;20223;-72
2022/06/10 02:32:35;;;;;;;7.13;3.17;;;;;;;16.66;72.29;101181.28;5063029;28;20298;-72
2022/06/10 02:35:03;;;;;;;5.00;2.50;;;;;;;16.64;72.52;101188.63;5064447;28;20203;-72
2022/06/10 02:37:40;;;;;;;6.03;2.47;;;;;;;16.69;71.83;101189.81;5063334;28;20261;-72
2022/06/10 02:40:17;;;;;;;5.67;2.53;;;;;;;16.59;71.93;101189.13;5067831;28;20302;-71
2022/06/10 02:42:55;;;;;;;5.97;2.60;;;;;;;16.55;71.88;101188.63;5058941;28;20202;-72
2022/06/10 02:45:30;;;;;;;6.03;2.30;;;;;;;16.46;72.67;101196.81;5064541;28;20299;-71
2022/06/10 02:48:06;;;;;;;7.23;2.80;;;;;;;16.37;72.55;101201.34;5065418;28;20676;-71
2022/06/10 02:50:35;;;;;;;7.37;2.73;;;;;;;16.28;72.99;101199.69;5074834;28;20288;-71
2022/06/10 02:53:04;;;;;;;5.90;2.90;;;;;;;16.32;72.98;101202.88;5082551;28;20236;-71
2022/06/10 02:55:32;;;;;;;4.93;2.60;;;;;;;16.36;72.10;101199.69;5080526;28;20221;-71
2022/06/10 03:01:13;;;;;;;9.80;2.80;;;;;;;16.33;71.50;101209.91;5048799;28;20298;-72
2022/06/10 03:03:58;;;;;;;10.13;3.30;;;;;;;16.23;72.19;101220.75;5092693;28;20603;-70
2022/06/10 03:06:38;;;;;;;7.23;2.43;;;;;;;16.22;72.76;101224.44;5090759;28;20199;-73
2022/06/10 03:09:12;;;;;;;7.20;2.73;;;;;;;16.25;73.09;101223.28;5084069;28;20556;-72
2022/06/10 03:11:48;;;;;;;6.70;2.73;;;;;;;16.28;72.43;101222.94;5086052;28;20226;-72
2022/06/10 03:14:29;;;;;;;5.37;2.77;;;;;;;16.32;71.75;101230.47;5090287;28;20626;-71
2022/06/10 03:17:09;;;;;;;7.53;2.67;;;;;;;16.36;71.57;101225.63;5089351;28;20663;-72
2022/06/10 03:19:47;;;;;;;6.10;2.97;;;;;;;16.32;71.51;101229.63;5090513;28;20209;-71
2022/06/10 03:22:29;;;;;;;7.23;3.00;;;;;;;16.32;71.41;101235.00;5089246;28;20203;-71
2022/06/10 03:25:03;;;;;;;8.80;3.30;;;;;;;16.32;71.58;101233.16;5090631;28;20285;-71
2022/06/10 03:27:41;;;;;;;5.93;3.00;;;;;;;16.30;71.42;101237.00;5092566;28;20331;-71
2022/06/10 03:30:14;;;;;;;9.17;3.67;;;;;;;16.30;71.87;101239.66;5088907;28;20700;-71
2022/06/10 03:32:49;;;;;;;7.80;3.70;;;;;;;16.28;71.79;101247.00;5091669;28;20210;-71
2022/06/10 03:35:24;;;;;;;8.87;3.17;;;;;;;16.26;72.00;101246.38;5088051;28;20293;-71
2022/06/10 03:37:57;;;;;;;5.93;3.03;;;;;;;16.08;72.71;101243.84;5086293;28;20190;-72
2022/06/10 03:40:29;;;;;;;11.77;3.43;;;;;;;16.01;72.83;101238.28;5089160;28;20216;-72
2022/06/10 03:43:00;;;;;;;8.30;3.10;;;;;;;15.94;72.98;101247.97;5085537;28;20260;-70
2022/06/10 03:45:33;;;;;;;6.90;3.13;;;;;;;15.78;73.78;101250.63;5085358;28;20215;-73
2022/06/10 03:48:02;;;;;;;5.93;3.17;;;;;;;15.55;75.28;101249.56;5083453;28;21332;-72
2022/06/10 03:50:38;;;;;;;14.17;3.53;;;;;;;15.46;75.58;101259.34;5085090;28;20281;-73
2022/06/10 03:53:08;;;;;;;6.27;3.10;;;;;;;15.60;74.98;101252.56;5082622;28;20237;-73
2022/06/10 03:55:35;;;;;;;9.03;3.00;;;;;;;15.70;74.57;101253.28;5087874;28;20294;-71
2022/06/10 03:58:03;;;;;;;10.57;3.47;;;;;;;15.77;74.41;101254.28;5081748;28;20205;-71
2022/06/10 04:00:32;;;;;;;9.30;3.30;;;;;;;15.89;74.25;101266.38;5085716;28;20237;-73
2022/06/10 04:03:00;;;;;;;13.30;3.97;;;;;;;15.89;74.22;101276.22;5082508;28;20203;-72
2022/06/10 04:05:27;;;;;;;8.00;3.50;;;;;;;15.94;73.36;101272.06;5084488;28;20638;-72
2022/06/10 04:07:56;;;;;;;10.00;3.30;;;;;;;15.97;73.30;101274.41;5086721;28;20321;-71
2022/06/10 04:10:27;;;;;;;6.53;3.13;;;;;;;15.95;73.12;101271.06;5088501;28;20298;-72
2022/06/10 04:12:56;;;;;;;10.67;3.10;;;;;;;16.00;72.46;101278.59;5084931;28;20202;-72
2022/06/10 04:15:25;;;;;;;7.30;3.33;;;;;;;16.01;72.26;101274.91;5086087;28;20206;-72
2022/06/10 04:17:56;;;;;;;8.40;3.70;;;;;;;16.03;71.81;101272.91;5085001;28;20290;-71
2022/06/10 04:20:26;;;;;;;8.57;3.10;;;;;;;16.12;71.58;101280.78;5087212;28;20301;-71
2022/06/10 04:22:54;;;;;;;8.80;3.23;;;;;;;16.23;70.95;101274.28;5083357;28;20243;-71
2022/06/10 04:25:24;;;;;;;9.90;3.53;;;;;;;16.24;71.25;101283.16;5084699;28;20618;-71
2022/06/10 04:27:52;;;;;;;5.50;3.30;;;;;;;16.24;70.72;101285.84;5086812;28;20230;-71
2022/06/10 04:30:26;;;;;;;7.53;3.53;;;;;;;16.26;70.95;101290.03;5087432;28;20226;-71
2022/06/10 04:32:54;;;;;;;7.30;3.27;;;;;;;16.28;70.66;101285.31;5086651;28;20195;-71
2022/06/10 04:35:23;;;;;;;7.63;3.10;;;;;;;16.31;70.60;101292.19;5088913;28;20298;-71
2022/06/10 04:37:52;;;;;;;6.47;3.03;;;;;;;16.32;70.52;101293.88;5086156;28;20194;-72
2022/06/10 04:40:25;;;;;;;10.53;3.47;;;;;;;16.30;71.15;101295.88;5086705;28;20545;-73
2022/06/10 04:42:53;;;;;;;10.33;4.03;;;;;;;16.35;70.97;101288.19;5079727;28;20632;-72
2022/06/10 04:45:25;;;;;;;5.53;3.10;;;;;;;16.41;70.29;101292.88;5087235;28;20230;-73
2022/06/10 04:47:54;;;;;;;9.63;3.60;;;;;;;16.45;70.69;101294.19;5085479;28;20230;-73
2022/06/10 04:50:24;;;;;;;6.73;3.60;;;;;;;16.47;70.05;101300.22;5086308;28;20705;-71
2022/06/10 04:52:53;;;;;;;8.73;3.97;;;;;;;16.41;70.53;101293.72;5083204;28;20202;-71
2022/06/10 04:55:21;;;;;;;10.73;3.87;;;;;;;16.44;70.68;101297.91;5084125;28;20250;-70
2022/06/10 04:57:53;;;;;;;7.97;3.70;;;;;;;16.38;70.61;101301.22;5085404;28;20211;-71
2022/06/10 05:00:24;;;;;;;8.30;3.77;;;;;;;16.35;70.99;101294.38;5088199;28;20221;-72
2022/06/10 05:02:52;;;;;;;9.03;3.93;;;;;;;16.32;70.81;101302.75;5084390;28;20290;-71
2022/06/10 05:05:21;;;;;;;10.07;3.87;;;;;;;16.30;71.78;101309.25;5087861;28;20210;-72
2022/06/10 05:07:49;;;;;;;11.70;4.50;;;;;;;16.37;71.04;101312.94;5082712;28;20240;-72
2022/06/10 05:10:18;;;;;;;8.67;4.23;;;;;;;16.40;71.16;101307.25;5087778;28;20268;-71
2022/06/10 05:12:46;;;;;;;10.77;4.30;;;;;;;16.46;70.71;101311.94;5084346;28;20301;-70
2022/06/10 05:15:19;;;;;;;11.00;4.60;;;;;;;16.57;70.32;101314.31;5083696;28;20215;-70
2022/06/10 05:17:48;;;;;;;8.97;4.27;;;;;;;16.55;70.98;101322.50;5085127;28;20210;-71
2022/06/10 05:20:18;;;;;;;11.57;4.40;;;;;;;16.54;70.95;101320.81;5083813;28;20207;-71
2022/06/10 05:22:46;;;;;;;7.10;3.93;;;;;;;16.57;71.12;101325.00;5087096;28;20203;-72
2022/06/10 05:25:14;;;;;;;8.60;3.50;;;;;;;16.65;70.72;101327.72;5083240;28;20239;-72
2022/06/10 05:27:42;;;;;;;7.97;4.20;;;;;;;16.74;70.59;101332.06;5085896;28;20203;-70
2022/06/10 05:30:16;;;;;;;7.73;4.40;;;;;;;16.77;70.50;101330.91;5085530;28;20266;-73
2022/06/10 05:32:44;;;;;;;10.37;4.30;;;;;;;16.81;71.02;101326.88;5064935;28;20225;-72
2022/06/10 05:35:12;;;;;;;10.30;4.10;;;;;;;16.85;70.86;101331.75;5086698;28;20269;-72
2022/06/10 05:37:41;;;;;;;10.00;4.50;;;;;;;16.89;70.88;101332.22;5085768;28;20207;-71
2022/06/10 05:40:20;;;;;;;11.23;4.17;;;;;;;16.90;71.08;101339.28;5085332;28;20647;-72
2022/06/10 05:42:48;;;;;;;9.43;4.37;;;;;;;16.94;71.08;101335.25;5080605;28;20201;-70
2022/06/10 05:45:38;;;;;;;11.50;4.33;;;;;;;17.04;70.89;101337.78;5080311;28;20206;-72
2022/06/10 05:48:07;;;;;;;12.47;4.37;;;;;;;17.10;70.08;101332.56;5080599;28;20855;-71
2022/06/10 05:50:37;;;;;;;9.17;4.20;;;;;;;17.14;70.33;101341.94;5083663;28;20240;-73
2022/06/10 05:53:08;;;;;;;11.40;4.37;;;;;;;17.20;69.99;101335.91;5083240;28;20203;-71
2022/06/10 05:55:38;;;;;;;7.60;3.70;;;;;;;17.26;69.44;101337.06;5085674;28;20238;-71
2022/06/10 05:58:07;;;;;;;8.20;3.60;;;;;;;17.31;68.47;101342.75;5084418;28;20231;-71
2022/06/10 06:00:35;;;;;;;8.07;3.40;;;;;;;17.34;68.88;101350.44;5084789;28;20606;-71
2022/06/10 06:03:05;;;;;;;10.57;3.93;;;;;;;17.35;69.48;101346.75;5078392;28;20300;-71
2022/06/10 06:05:34;;;;;;;10.20;4.27;;;;;;;17.39;69.23;101347.25;5083247;28;20206;-71
2022/06/10 06:08:02;;;;;;;8.20;4.40;;;;;;;17.53;68.28;101350.06;5081466;28;20225;-71
2022/06/10 06:10:30;;;;;;;12.83;4.67;;;;;;;17.38;68.72;101353.63;5081673;28;20677;-72
2022/06/10 06:12:58;;;;;;;13.07;4.90;;;;;;;17.35;68.77;101352.13;5083571;28;20333;-72
2022/06/10 06:15:26;;;;;;;7.83;4.60;;;;;;;17.31;69.51;101350.81;5083106;28;20254;-72
2022/06/10 06:17:54;;;;;;;9.17;4.10;;;;;;;17.34;69.15;101353.13;5083596;28;20203;-72
2022/06/10 06:20:24;;;;;;;9.40;4.30;;;;;;;17.28;68.95;101348.44;5084755;28;20579;-72
2022/06/10 06:22:53;;;;;;;8.67;4.40;;;;;;;17.34;69.10;101354.97;5083425;28;20330;-73
2022/06/10 06:25:21;;;;;;;7.13;4.20;;;;;;;17.47;69.19;101349.91;5084408;28;20206;-72
2022/06/10 06:27:50;;;;;;;10.37;4.93;;;;;;;17.58;69.54;101344.19;5082766;28;20444;-72
2022/06/10 06:30:21;;;;;;;13.70;5.10;;;;;;;17.80;68.58;101351.50;5085311;28;20690;-72
2022/06/10 06:32:49;;;;;;;7.20;4.37;;;;;;;17.79;67.07;101344.47;5090632;28;20208;-72
2022/06/10 06:35:17;;;;;;;11.43;5.23;;;;;;;17.81;67.55;101345.13;5084576;28;20941;-72
2022/06/10 06:37:46;;;;;;;8.73;5.37;;;;;;;17.78;68.02;101341.94;5082215;28;20570;-72
2022/06/10 06:40:14;;;;;;;11.27;5.60;;;;;;;17.76;68.55;101344.00;5086874;28;20263;-72
2022/06/10 06:42:42;;;;;;;12.13;4.63;;;;;;;17.85;68.70;101337.59;5086730;28;20214;-72
2022/06/10 06:45:11;;;;;;;13.30;4.87;;;;;;;18.01;68.31;101334.81;5086009;28;20214;-70
2022/06/10 06:47:51;;;;;;;9.53;4.20;;;;;;;18.06;68.30;101345.84;5086251;28;20655;-70
2022/06/10 06:50:23;;;;;;;12.77;5.97;;;;;;;18.22;68.33;101335.03;5084928;28;20328;-70
2022/06/10 06:52:54;;;;;;;11.03;5.63;;;;;;;18.31;68.05;101339.34;5088877;28;20249;-69
2022/06/10 06:55:30;;;;;;;11.90;6.53;;;;;;;18.41;67.77;101339.94;5086880;28;20210;-70
2022/06/10 06:57:58;;;;;;;8.07;4.57;;;;;;;18.50;66.46;101339.88;5087967;28;20211;-70
2022/06/10 07:00:27;;;;;;;9.37;3.67;;;;;;;18.60;64.20;101348.56;5089995;28;20278;-72
2022/06/10 07:02:55;;;;;;;7.00;3.37;;;;;;;18.58;63.58;101345.22;5086644;28;20210;-71
2022/06/10 07:05:23;;;;;;;9.90;4.03;;;;;;;18.67;63.41;101338.78;5084579;28;20310;-70
2022/06/10 07:07:53;;;;;;;13.00;3.90;;;;;;;18.79;63.61;101342.72;5091938;28;20210;-75
2022/06/10 07:10:22;;;;;;;10.73;4.63;;;;;;;18.78;64.26;101346.41;5091438;28;20683;-71
2022/06/10 07:12:50;;;;;;;14.93;5.40;;;;;;;18.93;63.67;101347.28;5099058;28;20661;-71
2022/06/10 07:15:19;;;;;;;9.00;4.00;;;;;;;18.98;63.33;101355.66;5087522;28;20619;-70
2022/06/10 07:17:47;;;;;;;8.70;3.93;;;;;;;18.89;62.80;101354.06;5088577;28;20286;-71
2022/06/10 07:20:21;;;;;;;11.23;4.50;;;;;;;19.04;63.59;101349.56;5089440;28;20249;-72
2022/06/10 07:22:49;;;;;;;14.23;5.13;;;;;;;19.08;64.10;101352.72;5087133;28;20305;-70
2022/06/10 07:25:19;;;;;;;9.60;4.00;;;;;;;19.18;63.08;101356.78;5083507;28;20305;-74
2022/06/10 07:27:47;;;;;;;16.13;5.73;;;;;;;19.26;63.15;101355.06;5084198;28;20202;-71
2022/06/10 07:30:17;;;;;;;7.50;3.80;;;;;;;19.22;63.41;101367.19;5090699;28;20400;-71
2022/06/10 07:32:46;;;;;;;12.83;5.30;;;;;;;19.16;62.50;101352.66;5096748;28;20219;-71
2022/06/10 07:35:14;;;;;;;11.43;4.57;;;;;;;19.26;62.67;101349.69;5086498;28;20257;-70
2022/06/10 07:37:42;;;;;;;14.23;5.53;;;;;;;19.46;61.96;101356.19;5088594;28;20199;-72
2022/06/10 07:41:56;;;;;;;13.20;5.20;;;;;;;19.48;61.28;101355.03;5088296;28;21834;-70
2022/06/10 07:43:25;;;;;;;10.37;3.60;;;;;;;19.49;61.56;101355.84;5087127;28;20203;-71
2022/06/10 07:45:54;;;;;;;10.00;4.40;;;;;;;19.51;61.30;101343.06;5087084;28;20214;-70
2022/06/10 07:48:22;;;;;;;15.60;4.10;;;;;;;19.58;61.47;101346.69;5088613;28;21002;-70
2022/06/10 07:50:50;;;;;;;12.80;4.83;;;;;;;19.71;60.14;101336.09;5086796;28;20335;-69
2022/06/10 07:53:19;;;;;;;8.70;4.07;;;;;;;19.75;59.98;101345.47;5085712;28;20317;-70
2022/06/10 07:55:48;;;;;;;10.00;4.67;;;;;;;19.78;60.36;101344.25;5088086;28;21522;-69
2022/06/10 07:58:18;;;;;;;9.50;5.20;;;;;;;19.84;59.94;101346.19;5087480;28;20595;-68
2022/06/10 08:00:48;;;;;;;19.40;7.17;;;;;;;19.90;60.71;101340.06;5086120;28;20206;-71
2022/06/10 08:03:16;;;;;;;11.60;4.87;;;;;;;19.96;60.69;101347.41;5085467;28;20207;-71
2022/06/10 08:05:45;;;;;;;8.53;4.70;;;;;;;20.02;60.33;101343.09;5086752;28;20261;-69
2022/06/10 08:08:15;;;;;;;8.47;4.53;;;;;;;20.13;57.20;101340.78;5087608;28;20234;-70
2022/06/10 08:10:43;;;;;;;11.27;5.17;;;;;;;20.18;55.91;101334.81;5082544;28;20222;-67
2022/06/10 08:13:10;;;;;;;16.57;5.83;;;;;;;20.36;55.79;101332.56;5081943;28;20211;-71
2022/06/10 08:15:41;;;;;;;13.93;5.57;;;;;;;20.51;55.08;101336.00;5085802;28;20252;-71
2022/06/10 08:18:13;;;;;;;8.27;5.33;;;;;;;20.52;55.80;101340.38;5087702;28;20494;-72
2022/06/10 08:23:28;;;;;;;14.23;6.27;;;;;;;20.62;56.12;101342.75;5085630;28;20237;-72
2022/06/10 08:25:59;;;;;;;12.93;7.03;;;;;;;20.73;56.59;101344.09;5090082;28;20211;-72
2022/06/10 08:28:27;;;;;;;11.90;8.30;;;;;;;20.95;54.91;101326.88;5086938;28;20282;-69
2022/06/10 08:30:55;;;;;;;11.93;8.20;;;;;;;20.83;55.24;101333.84;5082745;28;20237;-72
2022/06/10 08:33:24;;;;;;;12.70;7.80;;;;;;;20.79;55.66;101333.38;5082427;28;20195;-72
2022/06/10 08:35:52;;;;;;;10.37;6.97;;;;;;;20.85;56.79;101331.75;5083062;28;20211;-71
2022/06/10 08:38:21;;;;;;;17.23;8.87;;;;;;;21.01;56.25;101331.50;5087149;28;20237;-72
2022/06/10 08:40:56;;;;;;;13.80;7.63;;;;;;;21.20;55.74;101335.38;5086015;28;20289;-72
2022/06/10 08:43:41;;;;;;;15.07;7.60;;;;;;;21.20;56.57;101330.81;5083822;28;20209;-71
2022/06/10 08:46:22;;;;;;;13.80;8.53;;;;;;;21.34;54.05;101331.75;5087545;28;20700;-73
2022/06/10 08:49:12;;;;;;;12.77;8.30;;;;;;;21.47;54.19;101321.03;5087472;28;20210;-73
2022/06/10 08:51:52;;;;;;;14.80;9.30;;;;;;;21.47;55.12;101320.19;5085301;28;20253;-73
2022/06/10 08:54:27;;;;;;;15.13;9.30;;;;;;;21.84;53.93;101327.88;5085339;28;20280;-73
2022/06/10 08:56:59;;;;;;;17.23;10.73;;;;;;;21.82;53.93;101319.13;5087456;28;20226;-74
2022/06/10 08:59:31;;;;;;;15.53;8.93;;;;;;;21.81;54.00;101320.19;5087300;28;20287;-74
2022/06/10 09:02:05;;;;;;;17.63;9.67;;;;;;;21.87;53.47;101316.69;5087384;28;20801;-71
2022/06/10 09:04:44;;;;;;;12.80;8.80;;;;;;;21.94;54.10;101322.94;5080188;28;20297;-71
2022/06/10 09:07:21;;;;;;;17.33;9.40;;;;;;;22.21;52.80;101314.94;5090525;28;20325;-72
2022/06/10 09:09:49;;;;;;;13.40;9.23;;;;;;;22.15;52.58;101324.72;5090092;28;20242;-71
2022/06/10 09:12:23;;;;;;;15.30;8.73;;;;;;;22.22;52.85;101314.75;5084008;28;20207;-71
2022/06/10 09:14:58;;;;;;;9.57;7.20;;;;;;;22.28;53.12;101319.31;5090328;28;20282;-71
2022/06/10 09:17:33;;;;;;;16.93;8.20;;;;;;;22.48;52.39;101317.50;5085411;28;20583;-69
2022/06/10 09:20:15;;;;;;;13.35;6.85;;;;;;;22.58;52.17;101319.81;5092866;28;20230;-70
2022/06/10 09:22:48;;;;;;;11.82;7.03;;;;;;;22.60;51.24;101317.75;5094464;28;20202;-70
2022/06/10 09:25:25;;;;;;;15.50;6.87;;;;;;;22.66;50.84;101322.31;5089260;28;20278;-71
2022/06/10 09:27:56;;;;;;;11.70;5.30;;;;;;;22.70;51.82;101326.25;5085200;28;20655;-70
2022/06/10 09:30:34;;;;;;;8.13;3.83;;;;;;;22.75;49.81;101331.09;5084065;28;20268;-70
2022/06/10 09:33:10;;;;;;;15.82;3.63;;;;;;;22.88;50.15;101329.19;5081668;28;20300;-71
2022/06/10 09:35:51;;;;;;;11.45;5.15;;;;;;;22.99;50.49;101332.31;5085002;28;20195;-72
2022/06/10 09:38:26;;;;;;;5.28;2.70;;;;;;;23.06;48.74;101327.72;5084686;28;20205;-68
2022/06/10 09:41:02;;;;;;;4.38;2.00;;;;;;;23.10;46.95;101327.13;5079549;28;20812;-69
2022/06/10 09:43:55;;;;;;;5.65;2.33;;;;;;;23.12;47.64;101332.34;5084300;28;20231;-71
2022/06/10 09:46:36;;;;;;;8.68;2.10;;;;;;;23.24;47.04;101322.50;5081484;28;20290;-71
2022/06/10 09:49:34;;;;;;;6.82;2.28;;;;;;;23.42;45.19;101321.84;5082465;28;20243;-69
2022/06/10 09:52:16;;;;;;;5.43;1.90;;;;;;;23.45;46.02;101332.28;5080433;28;20302;-71
2022/06/10 09:55:06;;;;;;;7.22;2.17;;;;;;;23.50;45.86;101329.78;5081136;28;20285;-71
2022/06/10 09:58:06;;;;;;;6.20;2.15;;;;;;;23.35;44.47;101321.88;5085314;28;20202;-71
2022/06/10 10:00:42;;;;;;;5.93;1.80;;;;;;;23.19;45.44;101320.47;5081992;28;20203;-70
2022/06/10 10:03:28;;;;;;;5.22;2.03;;;;;;;23.36;45.98;101312.72;5081775;28;22295;-76
2022/06/10 10:06:13;;;;;;;4.78;2.00;;;;;;;23.41;45.73;101315.59;5079956;28;20198;-69
2022/06/10 10:08:51;;;;;;;5.38;1.80;;;;;;;23.68;44.40;101305.56;5081743;28;20237;-69
2022/06/10 10:11:27;;;;;;;6.38;1.98;;;;;;;23.71;44.09;101305.16;5082281;28;20222;-72
2022/06/10 10:14:06;;;;;;;4.38;1.77;;;;;;;23.63;45.55;101313.50;5081680;28;20202;-69
2022/06/10 10:16:51;;;;;;;7.22;1.70;;;;;;;23.57;45.65;101298.13;5081950;28;20199;-70
2022/06/10 10:19:42;;;;;;;9.95;2.25;;;;;;;23.46;45.07;101290.63;5084694;28;20203;-70
2022/06/10 10:22:38;;;;;;;8.43;2.20;;;;;;;23.43;44.48;101296.47;5076321;28;20213;-71
2022/06/10 10:25:14;;;;;;;5.07;1.38;;;;;;;23.37;43.00;101292.72;5082341;28;20207;-72
2022/06/10 10:27:42;;;;;;;6.78;1.60;;;;;;;23.23;44.37;101296.50;5085987;28;20246;-72
2022/06/10 10:30:18;;;;;;;4.47;1.70;;;;;;;23.41;44.38;101285.84;5081735;28;20312;-75
2022/06/10 10:32:51;;;;;;;5.25;1.85;;;;;;;23.52;44.98;101287.09;5084155;28;20206;-74
2022/06/10 10:35:24;;;;;;;5.00;2.03;;;;;;;23.46;45.09;101280.63;5082304;28;20221;-75
2022/06/10 10:37:55;;;;;;;6.32;2.00;;;;;;;23.44;45.51;101279.19;5080097;28;20723;-66
2022/06/10 10:40:35;;;;;;;9.63;2.22;;;;;;;23.56;46.58;101272.94;5083875;28;20207;-72
2022/06/10 10:43:08;;;;;;;17.55;2.67;;;;;;;23.62;46.61;101280.19;5084145;28;21033;-69
2022/06/10 10:45:39;;;;;;;11.65;1.90;;;;;;;23.48;46.13;101278.56;5079518;28;20203;-68
2022/06/10 10:48:18;;;;;;;5.45;1.83;;;;;;;23.61;45.71;101281.22;5083666;28;20405;-71
2022/06/10 10:50:55;;;;;;;10.40;2.10;;;;;;;23.76;44.87;101280.13;5085151;28;20242;-72
2022/06/10 10:53:28;;;;;;;5.10;1.83;;;;;;;23.81;43.72;101272.19;5083000;28;20210;-71
2022/06/10 10:56:00;;;;;;;6.50;1.90;;;;;;;23.83;44.37;101275.53;5084639;28;20218;-69
2022/06/10 10:58:31;;;;;;;8.80;2.38;;;;;;;23.91;44.08;101267.16;5081370;28;20708;-69
2022/06/10 11:01:02;;;;;;;7.20;3.15;;;;;;;23.98;43.78;101267.94;5080279;28;20198;-68
2022/06/10 11:03:33;;;;;;;12.63;2.42;;;;;;;24.20;44.13;101265.72;5080759;28;20225;-75
2022/06/10 11:06:02;;;;;;;5.25;1.80;;;;;;;24.24;44.20;101267.81;5080688;28;20241;-71
2022/06/10 11:08:35;;;;;;;6.88;1.77;;;;;;;24.33;44.28;101271.91;5087806;28;20203;-71
2022/06/10 11:11:22;;;;;;;4.60;2.05;;;;;;;24.46;44.34;101265.56;5081053;28;20284;-72
2022/06/10 11:13:59;;;;;;;3.47;1.67;;;;;;;24.50;43.85;101260.53;5085262;28;20207;-74
2022/06/10 11:16:43;;;;;;;8.10;2.20;;;;;;;24.61;43.98;101263.38;5081132;28;20255;-76
2022/06/10 11:19:20;;;;;;;5.30;2.20;;;;;;;24.73;43.49;101258.03;5078475;28;20242;-69
2022/06/10 11:22:08;;;;;;;3.53;1.63;;;;;;;24.85;43.30;101269.81;5081514;28;20202;-70
2022/06/10 11:24:38;;;;;;;6.10;2.08;;;;;;;25.13;41.85;101265.84;5080159;28;20268;-70
2022/06/10 11:27:23;;;;;;;7.80;3.25;;;;;;;25.31;42.32;101255.00;5081208;28;20203;-70
2022/06/10 11:30:00;;;;;;;6.53;2.17;;;;;;;25.58;40.19;101253.63;5086999;28;20276;-70
2022/06/10 11:32:33;;;;;;;8.68;2.28;;;;;;;25.57;39.34;101257.41;5078165;28;20218;-70
2022/06/10 11:35:03;;;;;;;4.95;2.15;;;;;;;25.51;39.87;101247.41;5076350;28;20287;-70
2022/06/10 11:37:36;;;;;;;6.38;2.05;;;;;;;25.44;40.93;101241.25;5085926;28;20209;-70
2022/06/10 11:40:14;;;;;;;6.32;2.03;;;;;;;25.60;41.70;101237.94;5081503;28;20814;-70
2022/06/10 11:42:49;;;;;;;7.00;2.10;;;;;;;25.68;39.58;101229.47;5083569;28;20241;-70
2022/06/10 11:45:25;;;;;;;6.97;2.17;;;;;;;25.50;40.12;101240.34;5078417;28;20654;-70
2022/06/10 11:47:59;;;;;;;7.97;1.77;;;;;;;25.24;41.44;101229.81;5085709;28;20209;-69
2022/06/10 11:50:34;;;;;;;10.20;1.83;;;;;;;25.53;40.39;101231.75;5083891;28;20243;-72
2022/06/10 11:53:13;;;;;;;5.15;1.80;;;;;;;25.79;39.08;101223.28;5081393;28;20763;-70
2022/06/10 11:55:44;;;;;;;5.05;1.85;;;;;;;25.85;38.60;101216.94;5085275;28;20688;-69